createdAt,value
2018-10-09T00:00:42.000Z,25.77
2018-10-09T00:03:12.180Z,26.13
2018-10-09T00:05:42.303Z,28.43
2018-10-09T00:08:12.401Z,28.47
2018-10-09T00:10:42.794Z,30.50
2018-10-09T00:13:12.841Z,28.07
2018-10-09T00:15:44.228Z,28.97
2018-10-09T00:18:15.620Z,27.47
2018-10-09T00:20:45.584Z,27.23
2018-10-09T00:23:15.649Z,25.37
2018-10-09T00:25:45.617Z,27.33
2018-10-09T00:28:15.960Z,26.30
2018-10-09T00:30:45.959Z,26.13
2018-10-09T00:33:17.325Z,24.93
2018-10-09T00:35:47.479Z,28.50
2018-10-09T00:38:17.549Z,28.03
2018-10-09T00:40:47.963Z,31.47
2018-10-09T00:43:17.950Z,32.00
2018-10-09T00:45:48.179Z,29.43
2018-10-09T00:48:18.589Z,29.00
2018-10-09T00:50:48.764Z,28.17
2018-10-09T00:53:18.940Z,28.00
2018-10-09T00:55:49.058Z,28.17
2018-10-09T00:58:19.708Z,27.33
2018-10-09T01:00:49.875Z,29.07
2018-10-09T01:03:20.212Z,29.23
2018-10-09T01:05:50.250Z,28.90
2018-10-09T01:08:20.305Z,27.87
2018-10-09T01:10:50.442Z,29.30
2018-10-09T01:13:20.472Z,32.13
2018-10-09T01:15:51.957Z,31.83
2018-10-09T01:18:22.060Z,34.00
2018-10-09T01:20:52.299Z,33.27
2018-10-09T01:23:22.509Z,32.00
2018-10-09T01:25:52.560Z,29.43
2018-10-09T01:28:22.919Z,31.20
2018-10-09T01:30:53.021Z,29.70
2018-10-09T01:33:23.099Z,26.03
2018-10-09T01:35:53.158Z,26.37
2018-10-09T01:38:23.204Z,27.97
2018-10-09T01:40:53.224Z,28.67
2018-10-09T01:43:30.340Z,30.33
2018-10-09T01:46:00.433Z,30.47
2018-10-09T01:48:31.084Z,30.73
2018-10-09T01:51:01.433Z,35.03
2018-10-09T01:53:31.549Z,38.90
2018-10-09T01:56:01.683Z,35.50
2018-10-09T01:58:31.687Z,34.47
2018-10-09T02:01:03.053Z,30.67
2018-10-09T02:03:33.114Z,32.93
2018-10-09T02:06:03.147Z,33.27
2018-10-09T02:08:33.223Z,33.67
2018-10-09T02:11:03.363Z,34.53
2018-10-09T02:13:37.323Z,33.37
2018-10-09T02:16:07.810Z,32.33
2018-10-09T02:18:37.972Z,33.73
2018-10-09T02:21:08.354Z,32.40
2018-10-09T02:23:38.327Z,32.87
2018-10-09T02:26:08.599Z,30.70
2018-10-09T02:28:38.988Z,31.20
2018-10-09T02:31:09.243Z,30.87
2018-10-09T02:33:39.301Z,30.27
2018-10-09T02:36:09.432Z,31.80
2018-10-09T02:38:39.433Z,31.33
2018-10-09T02:41:09.415Z,30.50
2018-10-09T02:43:39.740Z,30.73
2018-10-09T02:46:09.811Z,33.07
2018-10-09T02:48:39.911Z,32.40
2018-10-09T02:51:10.104Z,34.53
2018-10-09T02:53:40.229Z,34.17
2018-10-09T02:56:10.343Z,35.70
2018-10-09T02:58:40.712Z,36.97
2018-10-09T03:01:10.848Z,39.57
2018-10-09T03:03:40.810Z,41.53
2018-10-09T03:06:11.005Z,37.73
2018-10-09T03:08:41.584Z,39.37
2018-10-09T03:11:11.831Z,39.27
2018-10-09T03:13:45.485Z,42.80
2018-10-09T03:16:15.801Z,44.07
2018-10-09T03:18:45.840Z,50.87
2018-10-09T03:21:15.890Z,46.43
2018-10-09T03:23:46.161Z,42.83
2018-10-09T03:26:16.178Z,42.03
2018-10-09T03:28:46.250Z,40.03
2018-10-09T03:31:16.478Z,44.40
2018-10-09T03:33:46.597Z,44.37
2018-10-09T03:36:16.696Z,39.03
2018-10-09T03:38:47.000Z,35.17
2018-10-09T03:41:17.020Z,37.73
2018-10-09T03:43:47.029Z,37.33
2018-10-09T03:46:17.240Z,39.10
2018-10-09T03:48:48.361Z,41.33
2018-10-09T03:51:24.228Z,43.40
2018-10-09T03:53:55.661Z,45.77
2018-10-09T03:56:25.680Z,41.47
2018-10-09T03:58:55.735Z,39.47
2018-10-09T04:01:25.756Z,36.70
2018-10-09T04:03:56.263Z,39.73
2018-10-09T04:06:26.469Z,42.57
2018-10-09T04:08:56.511Z,44.93
2018-10-09T04:11:26.638Z,39.27
2018-10-09T04:13:58.179Z,39.43
2018-10-09T04:16:28.376Z,40.00
2018-10-09T04:18:58.713Z,36.10
2018-10-09T04:21:29.135Z,36.17
2018-10-09T04:23:59.204Z,36.63
2018-10-09T04:26:29.343Z,35.47
2018-10-09T04:28:59.796Z,35.87
2018-10-09T04:31:29.930Z,36.77
2018-10-09T04:34:00.043Z,37.73
2018-10-09T04:36:30.109Z,37.37
2018-10-09T04:39:00.275Z,35.00
2018-10-09T04:41:31.364Z,37.13
2018-10-09T04:44:02.750Z,37.20
2018-10-09T04:46:32.911Z,37.40
2018-10-09T04:49:02.993Z,37.80
2018-10-09T04:51:33.448Z,40.40
2018-10-09T04:54:04.604Z,39.43
2018-10-09T04:56:34.739Z,36.87
2018-10-09T04:59:04.899Z,35.53
2018-10-09T05:01:35.060Z,33.83
2018-10-09T05:04:05.228Z,32.80
2018-10-09T05:06:35.339Z,33.40
2018-10-09T05:09:08.723Z,35.43
2018-10-09T05:11:38.838Z,33.63
2018-10-09T05:14:09.044Z,32.63
2018-10-09T05:16:39.236Z,34.50
2018-10-09T05:19:09.289Z,37.00
2018-10-09T05:21:39.684Z,34.33
2018-10-09T05:24:09.872Z,33.90
2018-10-09T05:26:39.937Z,34.20
2018-10-09T05:29:09.991Z,37.33
2018-10-09T05:31:40.174Z,37.83
2018-10-09T05:34:10.341Z,34.13
2018-10-09T05:36:41.848Z,37.40
2018-10-09T05:39:12.092Z,37.47
2018-10-09T05:41:42.208Z,39.80
2018-10-09T05:44:12.381Z,37.73
2018-10-09T05:46:45.282Z,40.60
2018-10-09T05:49:15.625Z,38.70
2018-10-09T05:51:50.052Z,38.00
2018-10-09T05:54:20.368Z,35.87
2018-10-09T05:56:50.632Z,34.90
2018-10-09T05:59:21.019Z,34.03
2018-10-09T06:01:55.030Z,34.77
2018-10-09T06:04:25.180Z,35.70
2018-10-09T06:06:55.320Z,34.87
2018-10-09T06:09:25.326Z,33.67
2018-10-09T06:17:54.272Z,30.13
2018-10-09T06:20:25.774Z,33.10
2018-10-09T06:22:56.044Z,31.50
2018-10-09T06:25:26.096Z,34.00
2018-10-09T06:27:56.294Z,32.97
2018-10-09T06:30:26.336Z,32.43
2018-10-09T06:32:56.529Z,32.07
2018-10-09T06:35:27.212Z,33.00
2018-10-09T06:37:57.270Z,32.70
2018-10-09T06:40:27.647Z,33.07
2018-10-09T06:42:58.141Z,33.17
2018-10-09T06:45:28.364Z,31.57
2018-10-09T06:48:12.048Z,30.43
2018-10-09T06:50:42.071Z,31.20
2018-10-09T06:53:12.524Z,32.20
2018-10-09T06:55:42.977Z,31.40
2018-10-09T06:58:12.943Z,34.43
2018-10-09T07:00:43.224Z,34.40
2018-10-09T07:03:15.592Z,33.27
2018-10-09T07:05:45.581Z,35.23
2018-10-09T07:08:15.627Z,35.40
2018-10-09T07:10:45.922Z,37.50
2018-10-09T07:13:15.947Z,38.17
2018-10-09T07:15:46.789Z,39.20
2018-10-09T07:18:17.304Z,37.80
2018-10-09T07:20:47.532Z,37.67
2018-10-09T07:23:17.543Z,37.73
2018-10-09T07:25:47.644Z,36.40
2018-10-09T07:28:18.084Z,37.17
2018-10-09T07:30:48.188Z,39.77
2018-10-09T07:33:19.771Z,39.03
2018-10-09T07:35:49.790Z,39.17
2018-10-09T07:38:19.891Z,38.87
2018-10-09T07:40:50.231Z,39.23
2018-10-09T07:43:20.734Z,40.07
2018-10-09T07:45:51.036Z,40.03
2018-10-09T07:48:21.202Z,40.73
2018-10-09T07:50:59.305Z,40.17
2018-10-09T07:53:29.338Z,38.87
2018-10-09T07:55:59.699Z,40.70
2018-10-09T07:58:30.272Z,38.30
2018-10-09T08:01:00.421Z,37.93
2018-10-09T08:03:30.880Z,39.20
2018-10-09T08:06:01.000Z,40.53
2018-10-09T08:08:31.128Z,38.07
2018-10-09T08:11:01.347Z,34.83
2018-10-09T08:13:32.661Z,39.03
2018-10-09T08:16:02.712Z,36.40
2018-10-09T08:18:34.286Z,37.60
2018-10-09T08:21:04.505Z,33.93
2018-10-09T08:23:34.717Z,35.67
2018-10-09T08:26:06.225Z,33.70
2018-10-09T08:28:37.664Z,35.77
2018-10-09T08:31:07.836Z,35.17
2018-10-09T08:33:38.210Z,33.60
2018-10-09T08:36:08.356Z,33.33
2018-10-09T08:38:39.263Z,33.67
2018-10-09T08:41:09.384Z,30.57
2018-10-09T08:43:39.479Z,33.77
2018-10-09T08:46:09.589Z,32.47
2018-10-09T08:48:39.736Z,34.13
2018-10-09T08:51:10.120Z,32.20
2018-10-09T08:53:40.233Z,32.27
2018-10-09T08:56:10.257Z,31.73
2018-10-09T08:58:41.249Z,31.27
2018-10-09T09:01:11.718Z,31.00
2018-10-09T09:03:43.099Z,32.17
2018-10-09T09:06:13.953Z,30.90
2018-10-09T09:08:46.392Z,32.03
2018-10-09T09:11:16.685Z,30.73
2018-10-09T09:13:48.475Z,29.43
2018-10-09T09:18:41.004Z,29.87
2018-10-09T09:21:11.186Z,33.10
2018-10-09T09:23:41.469Z,25.27
2018-10-09T09:26:11.518Z,25.10
2018-10-09T09:28:41.541Z,29.03
2018-10-09T09:31:11.661Z,28.27
2018-10-09T09:33:41.736Z,30.90
2018-10-09T09:36:11.876Z,29.23
2018-10-09T09:38:41.965Z,29.57
2018-10-09T09:41:12.509Z,30.77
2018-10-09T09:43:42.575Z,28.07
2018-10-09T09:46:12.618Z,26.83
2018-10-09T09:48:42.876Z,28.53
2018-10-09T09:51:14.537Z,30.30
2018-10-09T09:53:44.707Z,30.53
2018-10-09T09:56:16.310Z,31.03
2018-10-09T09:58:47.200Z,29.97
2018-10-09T10:01:17.466Z,31.77
2018-10-09T10:03:47.554Z,30.47
2018-10-09T10:06:17.801Z,31.20
2018-10-09T10:08:48.184Z,30.27
2018-10-09T10:11:18.901Z,29.53
2018-10-09T10:13:48.976Z,29.40
2018-10-09T10:16:19.582Z,30.43
2018-10-09T10:18:49.936Z,30.60
2018-10-09T10:21:20.481Z,31.43
2018-10-09T10:23:50.729Z,30.80
2018-10-09T10:26:21.077Z,28.27
2018-10-09T10:28:51.361Z,27.73
2018-10-09T10:31:21.465Z,28.43
2018-10-09T10:33:53.021Z,21.63
2018-10-09T10:36:23.543Z,23.90
2018-10-09T10:38:53.585Z,24.67
2018-10-09T10:41:24.168Z,21.73
2018-10-09T10:43:54.227Z,21.50
2018-10-09T10:46:28.676Z,22.17
2018-10-09T10:49:05.096Z,22.07
2018-10-09T10:51:35.470Z,23.63
2018-10-09T10:54:09.720Z,21.83
2018-10-09T10:56:40.438Z,18.90
2018-10-09T10:59:10.464Z,21.97
2018-10-09T11:01:40.637Z,21.37
2018-10-09T11:04:10.789Z,19.60
2018-10-09T11:06:40.976Z,20.50
2018-10-09T11:09:13.443Z,19.53
2018-10-09T11:11:43.547Z,20.10
2018-10-09T11:14:13.652Z,19.83
2018-10-09T11:16:43.673Z,20.77
2018-10-09T11:19:13.848Z,18.73
2018-10-09T11:21:43.926Z,18.63
2018-10-09T11:24:14.188Z,18.87
2018-10-09T11:26:44.635Z,18.30
2018-10-09T11:29:15.456Z,17.23
2018-10-09T11:31:45.477Z,17.23
2018-10-09T11:34:16.905Z,18.47
2018-10-09T11:36:47.235Z,18.53
2018-10-09T11:39:17.408Z,19.43
2018-10-09T11:41:47.674Z,18.00
2018-10-09T11:44:18.079Z,16.73
2018-10-09T11:46:48.150Z,18.57
2018-10-09T11:49:19.115Z,19.27
2018-10-09T11:51:49.575Z,18.63
2018-10-09T11:54:19.619Z,16.37
2018-10-09T11:56:49.721Z,16.53
2018-10-09T11:59:20.671Z,17.13
2018-10-09T12:01:51.001Z,17.13
2018-10-09T12:04:21.351Z,17.30
2018-10-09T12:06:55.122Z,15.90
2018-10-09T12:09:25.665Z,16.00
2018-10-09T12:11:55.772Z,16.30
2018-10-09T12:14:25.884Z,15.07
2018-10-09T12:16:57.836Z,16.20
2018-10-09T12:19:27.873Z,16.30
2018-10-09T12:21:57.944Z,16.93
2018-10-09T12:24:28.112Z,13.97
2018-10-09T12:26:58.229Z,15.33
2018-10-09T12:29:28.660Z,15.50
2018-10-09T12:32:00.040Z,14.60
2018-10-09T12:34:30.137Z,15.30
2018-10-09T12:37:00.351Z,15.47
2018-10-09T12:39:30.824Z,15.30
2018-10-09T12:42:00.928Z,16.93
2018-10-09T12:44:30.995Z,16.03
2018-10-09T12:47:01.470Z,13.60
2018-10-09T12:49:31.508Z,13.23
2018-10-09T12:52:01.644Z,13.53
2018-10-09T12:54:34.193Z,14.17
2018-10-09T12:57:04.602Z,14.37
2018-10-09T12:59:34.736Z,14.10
2018-10-09T13:02:05.126Z,15.77
2018-10-09T13:04:35.536Z,14.17
2018-10-09T13:07:05.674Z,14.33
2018-10-09T13:09:35.848Z,12.90
2018-10-09T13:12:07.920Z,13.13
2018-10-09T13:14:38.267Z,11.93
2018-10-09T13:17:08.510Z,13.77
2018-10-09T13:19:38.691Z,13.80
2018-10-09T13:22:09.503Z,13.07
2018-10-09T13:24:40.553Z,12.87
2018-10-09T13:27:11.583Z,12.70
2018-10-09T13:29:41.980Z,13.17
2018-10-09T13:32:12.299Z,12.33
2018-10-09T13:34:42.520Z,14.37
2018-10-09T13:37:12.665Z,12.87
2018-10-09T13:39:42.753Z,13.10
2018-10-09T13:42:12.816Z,12.80
2018-10-09T13:44:42.894Z,12.47
2018-10-09T13:47:13.614Z,13.50
2018-10-09T13:49:43.591Z,13.03
2018-10-09T13:52:16.225Z,14.30
2018-10-09T13:54:46.261Z,13.27
2018-10-09T13:57:16.576Z,13.53
2018-10-09T13:59:48.014Z,13.63
2018-10-09T14:02:18.086Z,12.23
2018-10-09T14:04:48.197Z,12.57
2018-10-09T14:07:19.713Z,11.23
2018-10-09T14:09:49.948Z,11.53
2018-10-09T14:12:20.077Z,12.90
2018-10-09T14:14:50.317Z,11.67
2018-10-09T14:17:20.399Z,12.77
2018-10-09T14:19:51.090Z,11.87
2018-10-09T14:22:21.306Z,12.27
2018-10-09T14:24:51.396Z,12.47
2018-10-09T14:27:21.661Z,11.80
2018-10-09T14:29:51.868Z,11.90
2018-10-09T14:32:22.256Z,12.00
2018-10-09T14:34:52.401Z,11.83
2018-10-09T14:37:22.755Z,11.87
2018-10-09T14:39:57.634Z,13.40
2018-10-09T14:42:27.859Z,12.37
2018-10-09T14:44:57.907Z,11.73
2018-10-09T14:47:28.380Z,11.90
2018-10-09T14:49:59.263Z,11.43
2018-10-09T14:55:13.200Z,11.57
2018-10-09T14:57:43.325Z,10.40
2018-10-09T15:00:13.487Z,11.23
2018-10-09T15:02:43.797Z,10.20
2018-10-09T15:05:14.055Z,10.10
2018-10-09T15:07:45.205Z,10.27
2018-10-09T15:10:19.884Z,10.63
2018-10-09T15:12:50.324Z,10.27
2018-10-09T15:15:20.449Z,9.97
2018-10-09T15:17:50.720Z,10.83
2018-10-09T15:20:26.338Z,10.40
2018-10-09T15:22:57.625Z,9.67
2018-10-09T15:25:27.741Z,11.40
2018-10-09T15:27:58.077Z,10.60
2018-10-09T15:30:28.392Z,10.60
2018-10-09T15:32:58.452Z,10.83
2018-10-09T15:35:28.626Z,10.60
2018-10-09T15:38:00.297Z,10.57
2018-10-09T15:40:30.512Z,10.93
2018-10-09T15:43:00.776Z,10.27
2018-10-09T15:45:33.253Z,10.23
2018-10-09T15:48:03.356Z,10.87
2018-10-09T15:50:33.588Z,10.63
2018-10-09T15:53:04.225Z,10.67
2018-10-09T15:55:34.700Z,10.23
2018-10-09T15:58:04.808Z,10.43
2018-10-09T16:00:36.892Z,10.00
2018-10-09T16:03:08.049Z,9.90
2018-10-09T16:05:38.546Z,9.63
2018-10-09T16:08:08.823Z,10.07
2018-10-09T16:10:39.654Z,10.33
2018-10-09T16:13:10.183Z,9.63
2018-10-09T16:15:40.299Z,9.63
2018-10-09T16:18:10.496Z,10.23
2018-10-09T16:20:40.960Z,10.40
2018-10-09T16:23:11.213Z,10.47
2018-10-09T16:28:11.061Z,10.93
2018-10-09T16:30:41.418Z,10.90
2018-10-09T16:33:12.088Z,10.80
2018-10-09T16:35:42.336Z,10.90
2018-10-09T16:38:13.090Z,10.83
2018-10-09T16:40:43.247Z,10.60
2018-10-09T16:43:14.147Z,11.20
2018-10-09T16:45:44.343Z,10.67
2018-10-09T16:48:14.507Z,11.13
2018-10-09T16:50:44.999Z,11.53
2018-10-09T16:53:16.423Z,11.17
2018-10-09T16:55:47.142Z,12.07
2018-10-09T16:58:17.757Z,11.60
2018-10-09T17:00:47.930Z,12.23
2018-10-09T17:03:19.273Z,11.80
2018-10-09T17:05:51.794Z,11.90
2018-10-09T17:08:22.185Z,11.93
2018-10-09T17:10:52.606Z,12.10
2018-10-09T17:13:23.210Z,14.00
2018-10-09T17:15:53.461Z,13.70
2018-10-09T17:18:24.097Z,13.93
2018-10-09T17:20:55.303Z,15.13
2018-10-09T17:23:25.752Z,13.67
2018-10-09T17:25:56.520Z,15.60
2018-10-09T17:28:28.190Z,14.43
2018-10-09T17:30:58.608Z,14.63
2018-10-09T17:33:29.965Z,14.37
2018-10-09T17:36:01.942Z,15.40
2018-10-09T17:38:32.196Z,15.90
2018-10-09T17:41:03.157Z,16.60
2018-10-09T17:43:33.767Z,17.00
2018-10-09T17:46:04.315Z,16.10
2018-10-09T17:48:34.468Z,20.30
2018-10-09T17:51:08.147Z,21.20
2018-10-09T17:53:38.817Z,20.40
2018-10-09T17:56:10.960Z,23.13
2018-10-09T17:58:41.124Z,21.53
2018-10-09T18:01:11.452Z,20.80
2018-10-09T18:03:41.529Z,20.30
2018-10-09T18:06:11.696Z,20.07
2018-10-09T18:08:43.076Z,22.33
2018-10-09T18:11:13.328Z,20.87
2018-10-09T18:13:44.051Z,22.10
2018-10-09T18:16:14.226Z,20.70
2018-10-09T18:18:44.447Z,21.13
2018-10-09T18:21:15.253Z,20.80
2018-10-09T18:23:45.855Z,20.53
2018-10-09T18:26:16.144Z,20.17
2018-10-09T18:28:46.781Z,20.77
2018-10-09T18:31:17.802Z,23.57
2018-10-09T18:33:48.142Z,21.63
2018-10-09T18:36:20.095Z,22.07
2018-10-09T18:38:50.470Z,20.97
2018-10-09T18:41:29.475Z,21.27
2018-10-09T18:44:05.567Z,20.13
2018-10-09T18:46:35.934Z,21.10
2018-10-09T18:49:06.649Z,19.70
2018-10-09T18:51:37.466Z,22.07
2018-10-09T18:56:50.748Z,23.43
2018-10-09T18:59:21.024Z,23.53
2018-10-09T19:01:51.957Z,22.53
2018-10-09T19:04:23.776Z,24.00
2018-10-09T19:06:54.885Z,23.87
2018-10-09T19:09:25.303Z,22.37
2018-10-09T19:11:55.574Z,21.93
2018-10-09T19:14:25.771Z,24.27
2018-10-09T19:16:56.153Z,23.10
2018-10-09T19:19:29.575Z,25.23
2018-10-09T19:22:00.283Z,25.07
2018-10-09T19:24:30.761Z,25.13
2018-10-09T19:27:01.006Z,25.83
2018-10-09T19:29:31.324Z,25.60
2018-10-09T19:32:02.884Z,25.20
2018-10-09T19:34:33.584Z,24.93
2018-10-09T19:37:03.977Z,24.63
2018-10-09T19:39:40.353Z,26.97
2018-10-09T19:42:10.830Z,28.13
2018-10-09T19:44:41.558Z,26.67
2018-10-09T19:47:14.718Z,27.90
2018-10-09T19:49:47.144Z,28.83
2018-10-09T19:52:19.450Z,27.23
2018-10-09T19:54:50.069Z,26.73
2018-10-09T19:57:22.737Z,26.80
2018-10-09T19:59:56.009Z,29.47
2018-10-09T20:02:28.385Z,27.93
2018-10-09T20:05:00.420Z,27.00
2018-10-09T20:07:30.673Z,25.73
2018-10-09T20:10:02.014Z,27.20
2018-10-09T20:12:32.472Z,29.33
2018-10-09T20:15:05.941Z,29.10
2018-10-09T20:17:36.420Z,30.83
2018-10-09T20:20:06.632Z,30.33
2018-10-09T20:22:37.047Z,29.93
2018-10-09T20:25:07.210Z,30.37
2018-10-09T20:27:37.480Z,29.77
2018-10-09T20:30:07.816Z,30.37
2018-10-09T20:32:38.088Z,30.20
2018-10-09T20:35:08.411Z,30.33
2018-10-09T20:37:38.835Z,30.53
2018-10-09T20:40:09.074Z,31.30
2018-10-09T20:42:39.443Z,30.93
2018-10-09T20:45:10.005Z,32.93
2018-10-09T20:47:44.158Z,33.13
2018-10-09T20:52:58.820Z,31.93
2018-10-09T20:55:29.330Z,31.20
2018-10-09T20:57:59.892Z,30.60
2018-10-09T21:00:30.636Z,31.07
2018-10-09T21:03:01.004Z,29.83
2018-10-09T21:05:31.903Z,34.17
2018-10-09T21:08:02.385Z,31.97
2018-10-09T21:10:32.917Z,30.23
2018-10-09T21:13:04.043Z,31.53
2018-10-09T21:15:35.893Z,31.07
2018-10-09T21:18:06.565Z,30.43
2018-10-09T21:20:37.033Z,33.20
2018-10-09T21:23:07.721Z,34.80
2018-10-09T21:25:38.224Z,33.17
2018-10-09T21:28:08.871Z,31.10
2018-10-09T21:30:39.564Z,33.40
2018-10-09T21:33:19.896Z,32.33
2018-10-09T21:35:50.285Z,32.67
2018-10-09T21:38:21.321Z,32.30
2018-10-09T21:40:51.797Z,33.63
2018-10-09T21:43:22.193Z,34.07
2018-10-09T21:45:52.579Z,34.83
2018-10-09T21:48:26.870Z,36.67
2018-10-09T21:50:57.624Z,35.43
2018-10-09T21:53:28.267Z,35.13
2018-10-09T21:55:58.685Z,35.90
2018-10-09T21:58:31.602Z,35.90
2018-10-09T22:01:06.852Z,38.33
2018-10-09T22:03:37.792Z,34.73
2018-10-09T22:06:09.250Z,38.53
2018-10-09T22:08:44.677Z,35.50
2018-10-09T22:11:15.300Z,36.47
2018-10-09T22:13:46.096Z,35.77
2018-10-09T22:16:16.793Z,35.83
2018-10-09T22:18:47.450Z,33.70
2018-10-09T22:21:17.984Z,36.33
2018-10-09T22:23:48.320Z,34.47
2018-10-09T22:26:21.265Z,33.43
2018-10-09T22:28:51.820Z,33.60
2018-10-09T22:31:22.309Z,32.17
2018-10-09T22:33:52.868Z,33.87
2018-10-09T22:36:23.281Z,34.53
2018-10-09T22:38:53.798Z,33.80
2018-10-09T22:41:24.507Z,37.13
2018-10-09T22:43:55.001Z,36.20
2018-10-09T22:48:49.959Z,37.87
2018-10-09T22:51:20.399Z,33.87
2018-10-09T22:53:51.120Z,34.73
2018-10-09T22:56:21.650Z,34.90
2018-10-09T22:58:52.125Z,35.10
2018-10-09T23:01:22.796Z,34.93
2018-10-09T23:03:53.304Z,36.07
2018-10-09T23:06:23.849Z,38.17
2018-10-09T23:08:54.551Z,39.73
2018-10-09T23:11:24.840Z,36.67
2018-10-09T23:13:55.232Z,37.23
2018-10-09T23:16:25.483Z,38.43
2018-10-09T23:18:55.948Z,36.73
2018-10-09T23:21:26.310Z,35.23
2018-10-09T23:23:56.977Z,36.77
2018-10-09T23:26:27.354Z,37.57
2018-10-09T23:28:57.771Z,38.50
2018-10-09T23:31:28.066Z,37.03
2018-10-09T23:33:58.817Z,37.83
2018-10-09T23:36:29.270Z,38.80
2018-10-09T23:38:59.755Z,38.47
2018-10-09T23:41:30.258Z,36.10
2018-10-09T23:44:00.634Z,36.13
2018-10-09T23:46:31.009Z,38.70
2018-10-09T23:49:01.839Z,36.30
2018-10-09T23:51:32.336Z,39.53
2018-10-09T23:54:02.677Z,37.93
2018-10-09T23:56:33.067Z,37.23
2018-10-09T23:59:03.462Z,35.87
